Time;durP1;ratioP1;P1;durP2;ratioP2;P2;SDS_P1;SDS_P2;PMS_P1;PMS_P2;Temp;Humidity;BMP_temperature;BMP_pressure;BME280_temperature;BME280_humidity;BME280_pressure;Samples;Min_cycle;Max_cycle;Signal;HPM_P1;HPM_P2
2021/08/11 00:00:37;;;;;;;2.83;1.80;;;23.90;57.80;;;;;;5072975;28;20144;-59
2021/08/11 00:03:03;;;;;;;3.30;2.13;;;23.90;58.40;;;;;;5073388;28;20029;-60
2021/08/11 00:05:29;;;;;;;3.22;2.35;;;23.90;57.70;;;;;;5073219;28;20025;-60
2021/08/11 00:07:54;;;;;;;3.65;1.90;;;23.90;57.80;;;;;;5073228;28;20025;-61
2021/08/11 00:10:20;;;;;;;2.42;1.80;;;23.90;57.80;;;;;;5058144;28;20024;-60
2021/08/11 00:12:46;;;;;;;3.17;2.25;;;23.90;57.80;;;;;;5053052;28;20036;-60
2021/08/11 00:15:12;;;;;;;2.63;1.63;;;23.90;57.80;;;;;;5051990;28;20363;-60
2021/08/11 00:17:38;;;;;;;3.20;1.92;;;23.90;57.80;;;;;;5053084;28;20032;-60
2021/08/11 00:20:05;;;;;;;2.90;1.90;;;23.90;57.80;;;;;;5065567;28;20028;-59
2021/08/11 00:22:32;;;;;;;3.00;1.92;;;23.90;57.80;;;;;;5072925;28;20082;-60
2021/08/11 00:24:58;;;;;;;3.70;1.80;;;23.90;57.80;;;;;;5072863;28;20033;-60
2021/08/11 00:27:23;;;;;;;2.10;1.73;;;24.00;57.90;;;;;;5071644;28;20082;-60
2021/08/11 00:29:49;;;;;;;3.75;2.08;;;23.90;57.90;;;;;;5072699;28;20454;-60
2021/08/11 00:32:15;;;;;;;4.55;2.85;;;23.90;57.90;;;;;;5071831;28;20428;-60
2021/08/11 00:34:41;;;;;;;3.05;1.67;;;23.90;57.80;;;;;;5072565;28;20036;-60
2021/08/11 00:37:08;;;;;;;3.58;2.00;;;23.90;57.90;;;;;;5071737;28;20035;-60
2021/08/11 00:39:33;;;;;;;3.67;2.08;;;23.90;58.10;;;;;;5072515;28;20111;-60
2021/08/11 00:41:59;;;;;;;2.60;1.83;;;23.80;58.20;;;;;;5072528;28;20104;-60
2021/08/11 00:44:25;;;;;;;2.53;1.70;;;23.90;58.30;;;;;;5071981;28;20025;-59
2021/08/11 00:46:51;;;;;;;2.55;1.80;;;23.90;58.10;;;;;;5051735;28;20445;-60
2021/08/11 00:49:17;;;;;;;2.92;1.90;;;23.90;58.10;;;;;;5051250;28;20048;-60
2021/08/11 00:51:45;;;;;;;3.78;2.65;;;23.90;58.00;;;;;;5052103;28;20029;-60
2021/08/11 00:54:12;;;;;;;2.70;2.00;;;23.90;58.00;;;;;;5051662;28;20067;-60
2021/08/11 00:56:42;;;;;;;2.85;1.95;;;23.90;58.00;;;;;;5065073;28;20082;-60
2021/08/11 00:59:09;;;;;;;3.30;2.10;;;23.90;58.00;;;;;;5071168;28;20049;-60
2021/08/11 01:01:38;;;;;;;2.30;1.80;;;23.90;58.00;;;;;;5071887;28;20063;-60
2021/08/11 01:04:07;;;;;;;3.08;2.00;;;23.90;58.00;;;;;;5071138;28;20036;-61
2021/08/11 01:06:36;;;;;;;2.65;2.03;;;23.90;58.10;;;;;;5071881;28;20367;-60
2021/08/11 01:09:02;;;;;;;3.08;1.77;;;23.90;58.10;;;;;;5056650;28;20082;-61
2021/08/11 01:11:28;;;;;;;3.70;2.15;;;23.90;58.10;;;;;;5051628;28;20496;-60
2021/08/11 01:13:54;;;;;;;1.90;1.60;;;23.90;58.00;;;;;;5051687;28;20382;-60
2021/08/11 01:16:21;;;;;;;3.40;2.03;;;23.90;58.00;;;;;;5051134;28;20029;-60
2021/08/11 01:18:46;;;;;;;2.78;1.98;;;23.90;58.00;;;;;;5052107;28;20496;-60
2021/08/11 01:21:42;;;;;;;4.55;2.53;;;23.90;58.00;;;;;;5051264;28;20103;-61
2021/08/11 01:24:08;;;;;;;2.90;1.85;;;23.90;58.00;;;;;;5050530;28;20175;-61
2021/08/11 01:27:14;;;;;;;4.53;1.83;;;23.90;58.00;;;;;;5064976;28;20095;-60
2021/08/11 01:30:10;;;;;;;3.95;1.73;;;23.90;58.10;;;;;;5063934;28;20036;-61
2021/08/11 01:33:03;;;;;;;2.72;1.70;;;23.90;58.10;;;;;;5063446;28;20090;-60
2021/08/11 01:35:35;;;;;;;3.35;1.77;;;23.90;58.10;;;;;;5071202;28;20469;-61
2021/08/11 01:38:04;;;;;;;2.88;2.03;;;23.90;58.10;;;;;;5071844;28;20033;-61
2021/08/11 01:40:34;;;;;;;2.30;1.70;;;23.90;58.10;;;;;;5071509;28;20482;-61
2021/08/11 01:43:03;;;;;;;3.92;2.13;;;23.80;58.20;;;;;;5071590;28;20032;-61
2021/08/11 01:45:34;;;;;;;4.20;1.95;;;23.80;58.30;;;;;;5071225;28;20028;-61
2021/08/11 01:48:20;;;;;;;3.50;2.28;;;23.80;58.20;;;;;;5071584;28;20413;-61
2021/08/11 01:50:46;;;;;;;3.60;1.90;;;23.80;58.20;;;;;;5051305;28;20033;-61
2021/08/11 01:53:17;;;;;;;3.60;1.90;;;23.80;58.20;;;;;;5050602;28;20048;-61
2021/08/11 01:55:46;;;;;;;3.13;1.92;;;23.90;58.20;;;;;;5051037;28;20017;-62
2021/08/11 01:58:12;;;;;;;3.10;2.10;;;23.90;58.20;;;;;;5067531;28;20063;-62
2021/08/11 02:00:38;;;;;;;2.80;1.60;;;23.90;58.20;;;;;;5071475;28;20435;-62
2021/08/11 02:03:05;;;;;;;2.63;1.73;;;23.90;58.20;;;;;;5074457;28;20025;-60
2021/08/11 02:05:31;;;;;;;2.80;2.00;;;23.90;58.20;;;;;;5075136;28;20108;-60
2021/08/11 02:08:04;;;;;;;3.42;1.90;;;23.90;58.20;;;;;;5075773;28;20021;-61
2021/08/11 02:10:30;;;;;;;3.40;2.17;;;23.80;58.20;;;;;;5059269;28;20075;-61
2021/08/11 02:12:56;;;;;;;3.13;2.00;;;23.80;58.30;;;;;;5055075;28;20375;-61
2021/08/11 02:15:23;;;;;;;2.80;2.03;;;23.80;58.20;;;;;;5054727;28;20032;-61
2021/08/11 02:17:49;;;;;;;1.90;1.70;;;23.80;58.30;;;;;;5055098;28;20370;-60
2021/08/11 02:20:15;;;;;;;2.95;1.95;;;23.80;58.20;;;;;;5054323;28;20025;-61
2021/08/11 02:22:41;;;;;;;2.78;1.98;;;23.80;58.20;;;;;;5054701;28;20029;-60
2021/08/11 02:25:10;;;;;;;4.95;1.67;;;23.80;58.20;;;;;;5054201;28;20401;-60
2021/08/11 02:27:48;;;;;;;2.97;2.00;;;23.80;58.20;;;;;;5067877;28;20100;-60
2021/08/11 02:30:15;;;;;;;1.95;1.75;;;23.80;58.20;;;;;;5074857;28;20106;-61
2021/08/11 02:32:53;;;;;;;2.58;1.80;;;23.80;58.20;;;;;;5073469;28;20029;-61
2021/08/11 02:35:25;;;;;;;2.70;2.25;;;23.70;58.50;;;;;;5074225;28;20036;-61
2021/08/11 02:38:16;;;;;;;3.05;1.67;;;23.70;58.70;;;;;;5075357;28;20460;-61
2021/08/11 02:41:05;;;;;;;2.53;1.92;;;23.70;58.50;;;;;;5074720;28;20107;-61
2021/08/11 02:43:39;;;;;;;2.53;1.70;;;23.80;58.60;;;;;;5074824;28;20037;-61
2021/08/11 02:46:17;;;;;;;3.08;1.83;;;23.80;58.40;;;;;;5074578;28;20017;-61
2021/08/11 02:48:54;;;;;;;3.53;1.95;;;23.80;58.40;;;;;;5074812;28;20024;-61
2021/08/11 02:51:21;;;;;;;3.05;2.13;;;23.70;58.40;;;;;;5073682;28;20480;-61
2021/08/11 02:53:47;;;;;;;4.55;2.20;;;23.80;58.40;;;;;;5074621;28;20029;-61
2021/08/11 02:56:14;;;;;;;2.72;1.98;;;23.70;58.50;;;;;;5072479;28;20032;-62
2021/08/11 02:58:42;;;;;;;3.50;1.83;;;23.80;58.40;;;;;;5074676;28;20025;-61
2021/08/11 03:01:09;;;;;;;3.75;1.90;;;23.80;58.30;;;;;;5073438;28;20167;-61
2021/08/11 03:03:35;;;;;;;3.22;1.90;;;23.80;58.40;;;;;;5074507;28;20028;-61
2021/08/11 03:06:01;;;;;;;5.05;2.40;;;23.80;58.30;;;;;;5074191;28;20035;-61
2021/08/11 03:08:28;;;;;;;3.17;1.90;;;23.80;58.40;;;;;;5073670;28;20077;-61
2021/08/11 03:10:54;;;;;;;3.47;1.98;;;23.80;58.40;;;;;;5055435;28;20029;-62
2021/08/11 03:13:21;;;;;;;3.38;2.13;;;23.80;58.30;;;;;;5052831;28;20474;-61
2021/08/11 03:15:48;;;;;;;3.03;2.10;;;23.80;58.30;;;;;;5054258;28;20025;-61
2021/08/11 03:18:16;;;;;;;3.70;2.40;;;23.80;58.40;;;;;;5053646;28;20053;-61
2021/08/11 03:20:42;;;;;;;2.83;1.90;;;23.80;58.30;;;;;;5054072;28;20033;-61
2021/08/11 03:23:12;;;;;;;5.72;2.78;;;23.80;58.40;;;;;;5053622;28;20079;-61
2021/08/11 03:25:38;;;;;;;3.03;1.90;;;23.80;58.40;;;;;;5054085;28;20116;-61
2021/08/11 03:28:04;;;;;;;3.88;2.40;;;23.80;58.30;;;;;;5053852;28;20442;-62
2021/08/11 03:30:29;;;;;;;3.05;2.30;;;23.80;58.30;;;;;;5053161;28;20036;-62
2021/08/11 03:32:55;;;;;;;3.65;1.83;;;23.80;58.20;;;;;;5072294;28;20025;-62
2021/08/11 03:35:21;;;;;;;2.92;2.10;;;23.80;58.20;;;;;;5073180;28;20429;-61
2021/08/11 03:37:47;;;;;;;2.97;1.98;;;23.80;58.20;;;;;;5073916;28;20351;-61
2021/08/11 03:40:13;;;;;;;2.88;1.67;;;23.80;58.30;;;;;;5073240;28;20028;-62
2021/08/11 03:42:39;;;;;;;3.00;2.10;;;23.70;58.40;;;;;;5074099;28;20038;-61
2021/08/11 03:45:05;;;;;;;3.92;2.30;;;23.70;58.50;;;;;;5073946;28;20028;-61
2021/08/11 03:47:31;;;;;;;4.03;2.33;;;23.60;58.80;;;;;;5073088;28;20036;-61
2021/08/11 03:49:57;;;;;;;2.60;1.95;;;23.50;59.00;;;;;;5073220;28;20382;-61
2021/08/11 03:52:22;;;;;;;3.33;2.30;;;23.50;58.90;;;;;;5072915;28;20020;-61
2021/08/11 03:54:48;;;;;;;2.58;2.13;;;23.60;58.70;;;;;;5073442;28;20584;-61
2021/08/11 03:57:13;;;;;;;3.65;2.20;;;23.60;58.60;;;;;;5070981;28;20036;-61
2021/08/11 03:59:39;;;;;;;2.50;1.83;;;23.70;58.50;;;;;;5071923;28;20094;-61
2021/08/11 04:02:05;;;;;;;3.55;2.42;;;23.70;58.40;;;;;;5073009;28;20078;-61
2021/08/11 04:04:31;;;;;;;4.35;2.08;;;23.70;58.40;;;;;;5072544;28;20134;-61
2021/08/11 04:06:57;;;;;;;4.55;2.08;;;23.60;58.40;;;;;;5073047;28;20031;-61
2021/08/11 04:09:22;;;;;;;4.00;2.30;;;23.70;58.40;;;;;;5065717;28;20103;-61
2021/08/11 04:11:48;;;;;;;2.92;1.98;;;23.70;58.30;;;;;;5053407;28;20025;-61
2021/08/11 04:14:14;;;;;;;3.05;2.00;;;23.70;58.30;;;;;;5052229;28;20478;-61
2021/08/11 04:16:40;;;;;;;2.75;2.00;;;23.70;58.30;;;;;;5052727;28;20417;-61
2021/08/11 04:19:05;;;;;;;3.28;2.17;;;23.80;58.30;;;;;;5051756;28;20462;-61
2021/08/11 04:21:31;;;;;;;2.30;1.95;;;23.80;58.20;;;;;;5051760;28;20094;-61
2021/08/11 04:23:57;;;;;;;4.63;2.35;;;23.70;58.20;;;;;;5052085;28;20040;-61
2021/08/11 04:26:23;;;;;;;2.28;1.73;;;23.80;58.30;;;;;;5064314;28;20021;-62
2021/08/11 04:28:48;;;;;;;2.55;1.70;;;23.80;58.30;;;;;;5063278;28;20052;-61
2021/08/11 04:31:14;;;;;;;2.42;1.98;;;23.80;58.20;;;;;;5071900;28;20035;-60
2021/08/11 04:33:40;;;;;;;3.50;2.10;;;23.80;58.20;;;;;;5072807;28;20032;-60
2021/08/11 04:36:06;;;;;;;3.65;1.88;;;23.80;58.20;;;;;;5071170;28;20032;-60
2021/08/11 04:38:31;;;;;;;4.72;2.03;;;23.70;58.20;;;;;;5071748;28;20025;-61
2021/08/11 04:40:57;;;;;;;2.72;1.98;;;23.70;58.30;;;;;;5072532;28;20028;-61
2021/08/11 04:43:22;;;;;;;3.83;2.10;;;23.80;58.30;;;;;;5071576;28;20139;-61
2021/08/11 04:45:48;;;;;;;4.10;2.05;;;23.80;58.20;;;;;;5072413;28;20056;-61
2021/08/11 04:48:14;;;;;;;3.22;1.92;;;23.80;58.20;;;;;;5071671;28;20028;-62
2021/08/11 04:50:40;;;;;;;3.63;2.35;;;23.80;58.20;;;;;;5072323;28;20029;-61
2021/08/11 04:53:06;;;;;;;2.15;1.75;;;23.80;58.20;;;;;;5072132;28;20351;-61
2021/08/11 04:55:32;;;;;;;3.63;2.20;;;23.80;58.20;;;;;;5071618;28;20054;-61
2021/08/11 04:57:57;;;;;;;2.95;2.13;;;23.80;58.20;;;;;;5071943;28;20029;-61
2021/08/11 05:00:23;;;;;;;4.03;2.33;;;23.80;58.20;;;;;;5070941;28;20057;-61
2021/08/11 05:02:49;;;;;;;3.28;2.20;;;23.70;58.20;;;;;;5069991;28;20078;-61
2021/08/11 05:05:14;;;;;;;4.43;2.10;;;23.80;58.20;;;;;;5071374;28;20040;-61
2021/08/11 05:07:40;;;;;;;2.10;1.90;;;23.80;58.30;;;;;;5071618;28;20523;-61
2021/08/11 05:10:06;;;;;;;3.40;2.05;;;23.70;58.30;;;;;;5059581;28;20461;-61
2021/08/11 05:12:34;;;;;;;3.22;2.30;;;23.80;58.30;;;;;;5050957;28;20051;-61
2021/08/11 05:15:00;;;;;;;2.85;2.20;;;23.70;58.30;;;;;;5051724;28;20033;-61
2021/08/11 05:17:26;;;;;;;7.03;2.33;;;23.70;58.30;;;;;;5051235;28;20032;-61
2021/08/11 05:19:53;;;;;;;3.78;1.95;;;23.70;58.30;;;;;;5051909;28;20025;-61
2021/08/11 05:22:20;;;;;;;4.03;2.28;;;23.80;58.30;;;;;;5050961;28;20021;-60
2021/08/11 05:24:46;;;;;;;2.60;2.00;;;23.80;58.20;;;;;;5051797;28;20033;-61
2021/08/11 05:27:16;;;;;;;4.82;2.30;;;23.80;58.40;;;;;;5050692;28;20483;-60
2021/08/11 05:29:44;;;;;;;3.92;2.25;;;23.80;58.40;;;;;;5043333;28;20486;-63
2021/08/11 05:32:10;;;;;;;7.43;2.15;;;23.90;59.40;;;;;;5067162;28;20032;-65
2021/08/11 05:34:36;;;;;;;9.68;2.13;;;23.90;59.00;;;;;;5071980;28;20033;-64
2021/08/11 05:37:02;;;;;;;2.53;1.70;;;24.00;59.70;;;;;;5071494;28;20064;-66
2021/08/11 05:39:27;;;;;;;6.57;1.92;;;24.00;59.60;;;;;;5070993;28;20040;-63
2021/08/11 05:41:53;;;;;;;4.10;1.90;;;24.00;59.60;;;;;;5073045;28;20032;-65
2021/08/11 05:44:19;;;;;;;3.83;2.35;;;24.00;59.70;;;;;;5067377;28;20039;-66
2021/08/11 05:46:45;;;;;;;5.97;2.13;;;24.00;59.80;;;;;;5071069;28;20108;-60
2021/08/11 05:49:11;;;;;;;9.18;2.95;;;24.00;59.40;;;;;;5071131;28;20056;-59
2021/08/11 05:51:37;;;;;;;4.80;1.98;;;24.00;59.70;;;;;;5070437;28;20036;-59
2021/08/11 05:54:05;;;;;;;5.57;2.03;;;24.00;59.50;;;;;;5071298;28;20033;-61
2021/08/11 05:56:31;;;;;;;3.53;2.30;;;24.00;59.40;;;;;;5070260;28;20869;-60
2021/08/11 05:58:56;;;;;;;6.25;2.30;;;24.00;59.30;;;;;;5057989;28;20061;-62
2021/08/11 06:01:24;;;;;;;3.85;2.20;;;24.00;59.50;;;;;;5056975;28;20681;-63
2021/08/11 06:04:00;;;;;;;9.60;3.22;;;24.00;59.40;;;;;;5057136;28;20379;-62
2021/08/11 06:06:26;;;;;;;5.90;2.88;;;23.80;59.60;;;;;;5050580;28;20063;-60
2021/08/11 06:08:52;;;;;;;5.50;3.40;;;23.80;59.80;;;;;;5063348;28;20024;-63
2021/08/11 06:11:18;;;;;;;4.82;2.80;;;23.70;60.00;;;;;;5050619;28;20473;-58
2021/08/11 06:13:43;;;;;;;15.85;4.43;;;23.60;60.30;;;;;;5050887;28;20069;-63
2021/08/11 06:16:09;;;;;;;6.53;3.35;;;23.60;60.40;;;;;;5051272;28;20056;-58
2021/08/11 06:18:35;;;;;;;6.93;3.20;;;23.60;60.60;;;;;;5050557;28;20055;-61
2021/08/11 06:21:00;;;;;;;4.93;2.42;;;23.70;60.30;;;;;;5051152;28;20111;-60
2021/08/11 06:23:26;;;;;;;6.25;2.80;;;23.70;60.20;;;;;;5049219;28;20098;-59
2021/08/11 06:25:52;;;;;;;8.02;2.97;;;23.70;60.60;;;;;;5050939;28;20075;-61
2021/08/11 06:28:17;;;;;;;7.03;2.60;;;23.70;60.90;;;;;;5057701;28;20028;-60
2021/08/11 06:30:43;;;;;;;7.93;2.92;;;23.70;61.00;;;;;;5052596;28;20025;-62
2021/08/11 06:33:09;;;;;;;10.77;3.53;;;23.70;61.90;;;;;;5058204;28;20036;-60
2021/08/11 06:35:34;;;;;;;8.07;3.10;;;23.70;62.00;;;;;;5069684;28;20178;-60
2021/08/11 06:38:01;;;;;;;5.60;2.97;;;23.70;61.30;;;;;;5071021;28;20032;-61
2021/08/11 06:40:27;;;;;;;5.80;3.05;;;23.70;62.10;;;;;;5069765;28;20029;-60
2021/08/11 06:42:53;;;;;;;6.40;3.40;;;23.70;62.40;;;;;;5070649;28;20114;-60
2021/08/11 06:45:20;;;;;;;4.32;3.10;;;23.70;62.30;;;;;;5071026;28;20071;-60
2021/08/11 06:47:45;;;;;;;6.55;3.08;;;23.70;61.90;;;;;;5072896;28;20052;-60
2021/08/11 06:50:13;;;;;;;6.57;3.42;;;23.70;61.90;;;;;;5074988;28;20110;-60
2021/08/11 06:52:39;;;;;;;5.57;3.70;;;23.70;62.40;;;;;;5075173;28;20032;-60
2021/08/11 06:55:08;;;;;;;5.68;2.95;;;23.70;62.10;;;;;;5074843;28;20032;-60
2021/08/11 06:57:33;;;;;;;7.15;3.05;;;23.70;62.20;;;;;;5074370;28;20429;-60
2021/08/11 06:59:59;;;;;;;4.53;2.67;;;23.70;62.50;;;;;;5074438;28;20044;-60
2021/08/11 07:02:25;;;;;;;6.20;3.20;;;23.70;62.30;;;;;;5074521;28;20039;-60
2021/08/11 07:04:52;;;;;;;5.28;2.70;;;23.70;62.80;;;;;;5074760;28;20460;-60
2021/08/11 07:07:17;;;;;;;8.48;3.75;;;23.70;62.70;;;;;;5074290;28;20020;-60
2021/08/11 07:09:43;;;;;;;4.88;3.17;;;23.70;63.20;;;;;;5065602;28;20029;-60
2021/08/11 07:12:09;;;;;;;5.38;3.00;;;23.70;63.30;;;;;;5054868;28;20037;-60
2021/08/11 07:14:35;;;;;;;4.65;2.70;;;23.70;63.40;;;;;;5054021;28;20051;-60
2021/08/11 07:17:00;;;;;;;4.38;2.85;;;23.60;63.60;;;;;;5054534;28;20033;-60
2021/08/11 07:19:26;;;;;;;4.88;2.92;;;23.60;63.80;;;;;;5053865;28;20029;-60
2021/08/11 07:21:51;;;;;;;6.07;2.95;;;23.60;64.00;;;;;;5054208;28;20036;-60
2021/08/11 07:24:18;;;;;;;5.47;3.28;;;23.60;63.90;;;;;;5053869;28;20040;-60
2021/08/11 07:26:44;;;;;;;6.20;3.00;;;23.60;64.00;;;;;;5054492;28;20021;-60
2021/08/11 07:29:10;;;;;;;4.20;2.97;;;23.60;64.10;;;;;;5054551;28;20507;-60
2021/08/11 07:31:35;;;;;;;6.05;3.08;;;23.60;64.20;;;;;;5052591;28;20056;-60
2021/08/11 07:34:01;;;;;;;6.10;3.42;;;23.70;64.60;;;;;;5073229;28;20043;-60
2021/08/11 07:36:27;;;;;;;5.35;2.78;;;23.60;64.30;;;;;;5073318;28;20029;-60
2021/08/11 07:38:53;;;;;;;4.45;3.35;;;23.60;64.30;;;;;;5074248;28;20446;-60
2021/08/11 07:41:18;;;;;;;7.95;3.28;;;23.60;64.80;;;;;;5073466;28;20028;-60
2021/08/11 07:43:44;;;;;;;4.78;2.83;;;23.60;64.80;;;;;;5073588;28;20025;-60
2021/08/11 07:46:10;;;;;;;4.45;2.92;;;23.60;65.00;;;;;;5073755;28;20032;-60
2021/08/11 07:48:35;;;;;;;6.78;3.00;;;23.70;65.80;;;;;;5072908;28;20065;-60
2021/08/11 07:51:02;;;;;;;7.72;3.15;;;23.60;65.20;;;;;;5073493;28;20040;-60
2021/08/11 07:53:28;;;;;;;8.05;3.10;;;23.60;65.30;;;;;;5072688;28;20090;-60
2021/08/11 07:55:53;;;;;;;7.93;3.78;;;23.60;65.40;;;;;;5072901;28;20513;-60
2021/08/11 07:58:23;;;;;;;4.55;3.10;;;23.60;65.40;;;;;;5072904;28;20036;-60
2021/08/11 08:00:50;;;;;;;6.05;2.85;;;23.70;65.40;;;;;;5072560;28;20048;-60
2021/08/11 08:03:16;;;;;;;9.00;4.47;;;23.60;65.90;;;;;;5073031;28;20043;-60
2021/08/11 08:05:41;;;;;;;5.22;2.78;;;23.60;65.90;;;;;;5073537;28;20025;-60
2021/08/11 08:08:07;;;;;;;3.95;2.70;;;23.70;65.80;;;;;;5073683;28;20020;-60
2021/08/11 08:10:33;;;;;;;5.95;2.78;;;23.70;65.90;;;;;;5057095;28;20100;-60
2021/08/11 08:12:59;;;;;;;4.50;3.03;;;23.70;66.20;;;;;;5053722;28;20040;-61
2021/08/11 08:15:25;;;;;;;4.22;3.00;;;23.60;65.80;;;;;;5052909;28;20051;-61
2021/08/11 08:17:51;;;;;;;3.67;2.72;;;23.70;66.30;;;;;;5053544;28;20419;-61
2021/08/11 08:20:18;;;;;;;7.47;3.42;;;23.70;66.20;;;;;;5053600;28;20032;-60
2021/08/11 08:22:45;;;;;;;5.05;3.30;;;23.70;66.20;;;;;;5052783;28;20025;-61
2021/08/11 08:25:12;;;;;;;6.63;3.00;;;23.70;65.40;;;;;;5053338;28;20037;-61
2021/08/11 08:27:38;;;;;;;6.30;2.60;;;23.70;66.00;;;;;;5052601;28;20440;-61
2021/08/11 08:30:05;;;;;;;4.55;3.10;;;23.80;66.00;;;;;;5052925;28;20378;-60
2021/08/11 08:32:31;;;;;;;3.63;2.30;;;23.80;66.20;;;;;;5059180;28;20075;-61
2021/08/11 08:34:57;;;;;;;5.32;2.45;;;23.80;66.40;;;;;;5066830;28;20083;-60
2021/08/11 08:37:37;;;;;;;4.50;2.53;;;23.80;66.40;;;;;;5052081;28;20025;-60
2021/08/11 08:40:11;;;;;;;5.97;3.67;;;23.70;66.80;;;;;;5053119;28;20025;-60
2021/08/11 08:42:38;;;;;;;3.90;2.67;;;23.70;66.80;;;;;;5052102;28;20025;-61
2021/08/11 08:45:05;;;;;;;6.38;2.75;;;23.70;66.90;;;;;;5052796;28;20037;-60
2021/08/11 08:47:32;;;;;;;5.13;3.00;;;23.70;67.00;;;;;;5052211;28;20049;-60
2021/08/11 08:49:59;;;;;;;4.15;2.95;;;23.70;67.20;;;;;;5051564;28;20490;-60
2021/08/11 08:52:27;;;;;;;4.47;2.60;;;23.70;67.20;;;;;;5051936;28;20028;-60
2021/08/11 08:54:57;;;;;;;4.45;3.10;;;23.70;67.10;;;;;;5052371;28;20382;-60
2021/08/11 08:57:23;;;;;;;5.15;3.17;;;23.70;67.60;;;;;;5051993;28;20029;-60
2021/08/11 08:59:49;;;;;;;6.25;2.65;;;23.70;67.30;;;;;;5052636;28;20048;-60
2021/08/11 09:02:15;;;;;;;4.63;2.95;;;23.70;66.90;;;;;;5057090;28;20474;-60
2021/08/11 09:04:42;;;;;;;4.53;2.70;;;23.70;67.00;;;;;;5071438;28;20047;-60
2021/08/11 09:07:12;;;;;;;5.20;3.00;;;23.70;67.10;;;;;;5072462;28;20032;-61
2021/08/11 09:09:38;;;;;;;3.42;2.75;;;23.70;67.30;;;;;;5063614;28;20374;-60
2021/08/11 09:12:14;;;;;;;5.35;2.72;;;23.70;67.20;;;;;;5052072;28;20028;-60
2021/08/11 09:14:44;;;;;;;4.93;2.40;;;23.70;67.80;;;;;;5051445;28;20475;-60
2021/08/11 09:17:12;;;;;;;5.82;3.38;;;23.70;67.50;;;;;;5052331;28;20033;-60
2021/08/11 09:19:40;;;;;;;5.25;2.90;;;23.70;67.90;;;;;;5051880;28;20040;-60
2021/08/11 09:22:16;;;;;;;6.60;3.45;;;23.80;67.70;;;;;;5052049;28;20032;-60
2021/08/11 09:24:42;;;;;;;5.38;2.97;;;23.70;67.50;;;;;;5051702;28;20036;-60
2021/08/11 09:27:25;;;;;;;4.50;2.60;;;23.70;67.50;;;;;;5052081;28;20033;-60
2021/08/11 09:30:09;;;;;;;3.45;2.60;;;23.70;67.50;;;;;;5052395;28;20524;-60
2021/08/11 09:33:03;;;;;;;3.13;2.33;;;23.70;67.50;;;;;;5057957;28;20029;-60
2021/08/11 09:35:32;;;;;;;3.30;2.10;;;23.70;67.30;;;;;;5053555;28;20040;-60
2021/08/11 09:38:07;;;;;;;3.67;2.55;;;23.80;67.70;;;;;;5052117;28;20146;-61
2021/08/11 09:40:35;;;;;;;3.78;2.50;;;23.70;68.20;;;;;;5051582;28;20037;-60
2021/08/11 09:43:03;;;;;;;4.03;2.80;;;23.80;67.50;;;;;;5051747;28;20104;-62
2021/08/11 09:46:01;;;;;;;3.67;2.70;;;23.80;68.00;;;;;;5054180;28;20115;-61
2021/08/11 09:48:47;;;;;;;3.45;2.53;;;23.80;67.60;;;;;;5022431;28;20079;-61
2021/08/11 09:51:13;;;;;;;4.15;2.63;;;23.80;67.20;;;;;;5054113;28;20091;-61
2021/08/11 09:53:40;;;;;;;4.25;2.55;;;23.80;67.40;;;;;;5050427;28;20029;-61
2021/08/11 09:56:12;;;;;;;4.03;2.72;;;23.80;67.30;;;;;;5050327;28;20367;-60
2021/08/11 09:58:40;;;;;;;3.45;2.30;;;23.80;67.10;;;;;;5042372;28;20025;-61
2021/08/11 10:01:16;;;;;;;4.47;2.67;;;23.80;67.20;;;;;;5050863;28;20052;-61
2021/08/11 10:04:09;;;;;;;4.05;2.42;;;23.80;67.10;;;;;;5055660;28;20051;-61
2021/08/11 10:06:43;;;;;;;5.38;2.60;;;23.80;67.00;;;;;;5050142;28;20083;-61
2021/08/11 10:09:16;;;;;;;3.55;2.35;;;23.80;67.20;;;;;;5050710;28;20024;-61
2021/08/11 10:11:50;;;;;;;2.90;2.38;;;23.80;66.90;;;;;;5050031;28;20039;-61
2021/08/11 10:14:17;;;;;;;3.08;2.40;;;23.80;66.90;;;;;;5050786;28;20047;-61
2021/08/11 10:16:44;;;;;;;3.03;2.45;;;23.80;66.90;;;;;;5050223;28;20090;-61
2021/08/11 10:19:11;;;;;;;3.70;2.83;;;23.80;66.90;;;;;;5051164;28;20063;-61
2021/08/11 10:21:47;;;;;;;4.32;2.80;;;23.80;66.80;;;;;;5049933;28;20047;-61
2021/08/11 10:24:13;;;;;;;2.67;2.17;;;23.80;66.90;;;;;;5054716;28;20394;-61
2021/08/11 10:26:40;;;;;;;2.65;2.28;;;23.80;66.90;;;;;;5054200;28;20020;-61
2021/08/11 10:29:07;;;;;;;3.35;2.55;;;23.80;66.60;;;;;;5054398;28;20029;-61
2021/08/11 10:31:34;;;;;;;3.72;3.03;;;23.80;66.90;;;;;;5054240;28;20064;-61
2021/08/11 10:34:03;;;;;;;3.00;2.30;;;23.80;66.90;;;;;;5057761;28;20029;-61
2021/08/11 10:36:30;;;;;;;2.88;2.33;;;23.80;66.90;;;;;;5052312;28;20499;-61
2021/08/11 10:38:57;;;;;;;4.05;2.50;;;23.80;66.60;;;;;;5053184;28;20370;-61
2021/08/11 10:41:30;;;;;;;3.75;2.58;;;23.80;66.60;;;;;;5054508;28;20032;-61
2021/08/11 10:43:58;;;;;;;4.85;2.20;;;23.90;66.90;;;;;;5047734;28;20079;-61
2021/08/11 10:46:40;;;;;;;4.10;2.40;;;23.80;67.00;;;;;;5054232;28;20029;-61
2021/08/11 10:49:07;;;;;;;3.17;2.70;;;23.90;67.10;;;;;;5047483;28;20041;-61
2021/08/11 10:51:42;;;;;;;3.83;2.53;;;23.90;66.90;;;;;;5053281;28;20082;-61
2021/08/11 10:54:08;;;;;;;2.83;2.47;;;23.90;66.90;;;;;;5054208;28;20033;-61
2021/08/11 10:56:55;;;;;;;2.95;2.28;;;23.90;66.40;;;;;;5053509;28;20032;-61
2021/08/11 10:59:24;;;;;;;3.42;2.35;;;23.90;66.50;;;;;;5054106;28;20524;-60
2021/08/11 11:01:53;;;;;;;5.00;2.45;;;23.90;66.50;;;;;;5054675;28;20033;-61
2021/08/11 11:04:37;;;;;;;3.55;2.58;;;23.90;66.10;;;;;;5053936;28;20057;-61
2021/08/11 11:07:12;;;;;;;4.82;3.20;;;23.90;66.50;;;;;;5054288;28;20025;-61
2021/08/11 11:09:42;;;;;;;2.72;2.22;;;23.90;66.60;;;;;;5053116;28;20052;-61
2021/08/11 11:12:20;;;;;;;4.15;2.13;;;23.90;66.50;;;;;;5052589;28;20115;-60
2021/08/11 11:14:47;;;;;;;3.42;2.65;;;23.80;66.40;;;;;;5052953;28;20033;-60
2021/08/11 11:17:14;;;;;;;3.58;2.83;;;23.90;66.40;;;;;;5054040;28;20037;-60
2021/08/11 11:20:05;;;;;;;3.53;2.55;;;23.90;66.30;;;;;;5052855;28;20040;-61
2021/08/11 11:22:50;;;;;;;3.53;2.50;;;23.90;66.40;;;;;;5052735;28;20205;-61
2021/08/11 11:25:18;;;;;;;2.63;2.05;;;23.90;66.60;;;;;;5053480;28;20033;-61
2021/08/11 11:27:44;;;;;;;4.45;2.60;;;23.90;66.40;;;;;;5044725;28;20137;-61
2021/08/11 11:30:15;;;;;;;4.10;2.50;;;23.90;66.50;;;;;;5053251;28;20112;-60
2021/08/11 11:32:41;;;;;;;4.10;2.25;;;23.90;66.60;;;;;;5059349;28;20040;-60
2021/08/11 11:35:24;;;;;;;2.38;2.15;;;23.90;66.50;;;;;;5053437;28;20033;-61
2021/08/11 11:38:05;;;;;;;3.35;2.33;;;23.90;66.50;;;;;;5052897;28;20037;-61
2021/08/11 11:40:32;;;;;;;3.58;2.53;;;23.90;66.50;;;;;;5052740;28;20068;-60
2021/08/11 11:43:22;;;;;;;3.28;2.60;;;23.90;66.30;;;;;;5053108;28;20565;-61
2021/08/11 11:45:48;;;;;;;4.60;2.40;;;24.00;66.10;;;;;;5052650;28;20041;-61
2021/08/11 11:48:15;;;;;;;4.90;2.47;;;24.00;66.30;;;;;;5052725;28;20451;-61
2021/08/11 11:50:43;;;;;;;3.22;2.40;;;24.00;66.10;;;;;;5052325;28;20024;-60
2021/08/11 11:53:18;;;;;;;3.28;2.70;;;24.00;66.20;;;;;;5053248;28;20035;-61
2021/08/11 11:55:43;;;;;;;4.38;2.35;;;24.00;66.30;;;;;;5044947;28;20028;-61
2021/08/11 11:58:13;;;;;;;3.22;2.38;;;24.00;66.10;;;;;;5053251;28;20442;-61
2021/08/11 12:00:39;;;;;;;2.92;2.35;;;24.00;66.30;;;;;;5052068;28;20064;-60
2021/08/11 12:03:05;;;;;;;3.47;2.45;;;24.00;66.30;;;;;;5059465;28;20370;-61
2021/08/11 12:05:50;;;;;;;5.38;2.85;;;23.90;66.10;;;;;;5052178;28;20037;-61
2021/08/11 12:08:18;;;;;;;2.97;2.40;;;24.00;66.10;;;;;;5052675;28;20462;-61
2021/08/11 12:10:49;;;;;;;2.53;2.20;;;24.00;66.10;;;;;;5052138;28;20146;-60
2021/08/11 12:13:16;;;;;;;3.85;2.45;;;23.90;66.10;;;;;;5052662;28;20136;-61
2021/08/11 12:15:43;;;;;;;3.60;2.53;;;24.00;66.10;;;;;;5051915;28;20460;-60
2021/08/11 12:18:17;;;;;;;4.65;2.78;;;24.00;66.00;;;;;;5052422;28;20025;-61
2021/08/11 12:20:44;;;;;;;3.97;2.35;;;24.00;66.00;;;;;;5051930;28;20025;-61
2021/08/11 12:23:16;;;;;;;3.08;2.25;;;24.00;65.90;;;;;;5052666;28;20095;-61
2021/08/11 12:25:42;;;;;;;4.38;2.83;;;24.00;66.00;;;;;;5052245;28;20463;-61
2021/08/11 12:28:19;;;;;;;4.50;2.88;;;24.00;66.00;;;;;;5052175;28;20032;-60
2021/08/11 12:31:06;;;;;;;2.30;2.08;;;24.00;66.00;;;;;;5057725;28;20132;-60
2021/08/11 12:33:35;;;;;;;4.28;2.63;;;24.00;66.00;;;;;;5058566;28;20087;-60
2021/08/11 12:36:02;;;;;;;2.90;1.95;;;24.00;66.00;;;;;;5052120;28;20508;-61
2021/08/11 12:38:34;;;;;;;3.33;2.40;;;24.00;65.90;;;;;;5051749;28;20067;-61
2021/08/11 12:41:19;;;;;;;;;;;24.00;65.90;;;;;;5052596;28;20039;-61
2021/08/11 12:43:49;;;;;;;3.00;2.08;;;24.00;65.80;;;;;;5051521;28;19909;-60
2021/08/11 12:46:15;;;;;;;2.83;2.03;;;24.00;65.80;;;;;;5051069;28;20037;-60
2021/08/11 12:48:41;;;;;;;2.92;2.40;;;24.00;65.70;;;;;;5051825;28;20090;-60
2021/08/11 12:51:23;;;;;;;3.38;2.70;;;24.00;65.70;;;;;;5051310;28;20029;-60
2021/08/11 12:54:15;;;;;;;3.30;2.40;;;24.00;65.70;;;;;;5051408;28;20057;-60
2021/08/11 12:56:58;;;;;;;4.03;2.63;;;24.00;65.70;;;;;;5049084;28;20045;-62